Latest Coastal Weather Observations for Hillarys Point Boat Harbour

IDW60701

Issued at 9:25 pm WST Friday 24 October 2014 (issued every 10 minutes, with the page automatically refreshed every 10 minutes)

About coastal observations | Map of coastal stations | Coastal observations for WA | Marine services | Other Formats
Station Details ID: 009265 Name: HILLARYS BOAT HARBOUR NTC AWS Lat: -31.83 Lon: 115.74 Height: 0.0 m
Data from the previous 72 hours. | See also: Recent months for locations in Western Australia
Date/Time
WST
Temp

°C
Wind Pressure Rain
since 9am
mm
Weather Cloud Vis
km
Sea
Height
m
Swell
Dir
 
Speed
knots
Gust
knots
hPa Trend Height
m
Period
s
Dir
24/09:00pm 19.0 SSW 4 11 1015.5 - - - - - - - - -
24/08:30pm 19.1 SSW 5 11 1015.5 - - - - - - - - -
24/08:00pm 19.2 SSW 5 10 1015.3 - - - - - - - - -
24/07:30pm 19.3 SSW 4 10 1015.1 - - - - - - - - -
24/07:00pm 19.5 SSW 5 9 1015.0 - - - - - - - - -
24/06:30pm 19.6 SSW 4 10 1015.0 - - - - - - - - -
24/06:00pm 19.9 SSW 6 13 1014.9 - - - - - - - - -
24/05:30pm 20.3 SSW 6 12 1014.8 - - - - - - - - -
24/05:00pm 20.4 SSW 6 10 1014.6 - - - - - - - - -
24/04:30pm 20.7 SSW 6 11 1014.4 - - - - - - - - -
24/04:00pm 20.7 SSW 6 11 1014.3 - - - - - - - - -
24/03:30pm 20.8 SSW 6 10 1014.1 - - - - - - - - -
24/03:00pm 20.7 SSW 6 12 1014.1 - - - - - - - - -
24/02:30pm 20.7 SW 7 11 1014.4 - - - - - - - - -
24/02:00pm 20.8 SW 7 12 1014.6 - - - - - - - - -
24/01:30pm 20.3 SW 10 14 1014.9 - - - - - - - - -
24/01:00pm 20.3 SW 8 12 1015.2 - - - - - - - - -
24/12:30pm 20.0 SW 9 13 1015.4 - - - - - - - - -
24/12:00pm 19.9 SW 9 13 1015.7 - - - - - - - - -
24/11:30am 20.1 SW 7 11 1015.9 - - - - - - - - -
24/11:00am 19.3 SW 8 12 1016.4 - - - - - - - - -
24/10:30am 19.3 SW 6 9 1016.7 - - - - - - - - -
24/10:00am 18.9 SW 6 8 1017.0 - - - - - - - - -
24/09:30am 18.8 SW 4 6 1017.3 - - - - - - - - -
24/09:00am 19.0 E 3 7 1017.5 - - - - - - - - -
24/08:30am 18.7 E 3 8 1017.3 - - - - - - - - -
24/08:00am 17.7 E 6 11 1017.2 - - - - - - - - -
24/07:30am 17.1 ENE 7 14 1017.3 - - - - - - - - -
24/07:00am 16.1 ENE 7 11 1017.1 - - - - - - - - -
24/06:30am 15.5 ENE 5 9 1017.1 - - - - - - - - -
24/06:00am 15.2 E 4 7 1017.2 - - - - - - - - -
24/05:30am 15.3 E 6 10 1016.8 - - - - - - - - -
24/05:00am 15.5 E 6 10 1016.6 - - - - - - - - -
24/04:30am 15.5 E 3 6 1016.8 - - - - - - - - -
24/04:00am 15.4 E 2 4 1016.9 - - - - - - - - -
24/03:30am 15.6 E 2 3 1017.0 - - - - - - - - -
24/03:00am 15.8 E 1 3 1016.9 - - - - - - - - -
24/02:30am 16.3 ESE 1 3 1017.0 - - - - - - - - -
24/02:00am 16.5 SE 1 4 1016.8 - - - - - - - - -
24/01:30am 16.7 SE 2 5 1017.0 - - - - - - - - -
24/01:00am 17.0 SSE 2 4 1017.0 - - - - - - - - -
24/12:30am 17.1 SSE 3 6 1017.0 - - - - - - - - -
24/12:00am 17.3 SE 1 4 1017.2 - - - - - - - - -
 
Date/Time
WST
Temp

°C
Wind Pressure Rain
since 9am
mm
Weather Cloud Vis
km
Sea
Height
m
Swell
Dir
 
Speed
knots
Gust
knots
hPa Trend Height
m
Period
s
Dir
23/11:30pm 18.0 SSE 4 7 1017.2 - - - - - - - - -
23/11:00pm 18.4 S 3 7 1017.3 - - - - - - - - -
23/10:30pm 18.5 SSW 3 9 1017.4 - - - - - - - - -
23/10:00pm 18.6 S 4 8 1017.7 - - - - - - - - -
23/09:30pm 18.6 SSW 3 8 1017.8 - - - - - - - - -
23/09:00pm 18.7 SSW 5 10 1017.8 - - - - - - - - -
23/08:30pm 18.7 SSW 3 9 1017.7 - - - - - - - - -
23/08:00pm 18.7 SSW 4 10 1017.6 - - - - - - - - -
23/07:30pm 18.6 SSW 4 10 1017.3 - - - - - - - - -
23/07:00pm 18.6 SSW 5 11 1017.1 - - - - - - - - -
23/06:30pm 18.8 SSW 6 12 1017.0 - - - - - - - - -
23/06:00pm 19.0 SSW 5 12 1016.7 - - - - - - - - -
23/05:30pm 19.2 SSW 6 12 1016.4 - - - - - - - - -
23/05:00pm 19.4 SSW 6 11 1016.3 - - - - - - - - -
23/04:30pm 19.2 SSW 7 12 1016.1 - - - - - - - - -
23/04:00pm 19.4 SSW 6 11 1016.0 - - - - - - - - -
23/03:30pm 19.5 SSW 6 11 1015.9 - - - - - - - - -
23/03:00pm 19.8 SW 8 12 1015.9 - - - - - - - - -
23/02:30pm 19.6 SW 9 13 1016.0 - - - - - - - - -
23/02:00pm 19.9 SW 8 13 1016.0 - - - - - - - - -
23/01:30pm 19.5 WSW 10 14 1016.0 - - - - - - - - -
23/01:00pm 19.5 SW 10 13 1016.0 - - - - - - - - -
23/12:30pm 19.6 WSW 9 13 1016.0 - - - - - - - - -
23/12:00pm 19.4 WSW 9 13 1016.0 - - - - - - - - -
23/11:30am 19.6 WSW 7 10 1016.0 - - - - - - - - -
23/11:00am 19.6 WSW 8 13 1016.1 - - - - - - - - -
23/10:30am 19.4 W 8 13 1016.1 - - - - - - - - -
23/10:00am 19.4 W 8 13 1016.0 - - - - - - - - -
23/09:30am 19.3 W 8 12 1015.8 - - - - - - - - -
23/09:00am 19.3 W 8 12 1015.5 - - - - - - - - -
23/08:30am 19.2 WSW 8 13 1015.2 - - - - - - - - -
23/08:00am 19.0 WSW 9 14 1015.0 - - - - - - - - -
23/07:30am 19.1 WSW 9 13 1014.7 - - - - - - - - -
23/07:00am 19.0 W 9 15 1014.4 - - - - - - - - -
23/06:30am 18.9 W 9 14 1014.1 - - - - - - - - -
23/06:00am 18.8 W 9 14 1013.7 - - - - - - - - -
23/05:30am 18.8 W 9 14 1013.3 - - - - - - - - -
23/05:00am 18.8 W 8 12 1013.0 - - - - - - - - -
23/04:30am 18.8 W 8 13 1012.7 - - - - - - - - -
23/04:00am 18.6 W 9 14 1012.9 - - - - - - - - -
23/03:30am 18.5 W 10 16 1013.2 - - - - - - - - -
23/03:00am 18.9 WNW 9 14 1013.4 - - - - - - - - -
23/02:30am 18.9 WNW 10 16 1013.5 - - - - - - - - -
23/02:00am 17.1 N 4 7 1013.5 - - - - - - - - -
23/01:30am 16.4 N 5 8 1013.5 - - - - - - - - -
23/01:00am 16.0 N 5 8 1013.5 - - - - - - - - -
23/12:30am 16.1 NNE 3 5 1013.7 - - - - - - - - -
23/12:00am 16.3 N 5 7 1014.3 - - - - - - - - -
 
Date/Time
WST
Temp

°C
Wind Pressure Rain
since 9am
mm
Weather Cloud Vis
km
Sea
Height
m
Swell
Dir
 
Speed
knots
Gust
knots
hPa Trend Height
m
Period
s
Dir
22/11:30pm 16.4 N 4 7 1014.5 - - - - - - - - -
22/11:00pm 16.6 NNE 3 4 1014.4 - - - - - - - - -
22/10:30pm 17.3 N 3 6 1014.2 - - - - - - - - -
22/10:00pm 17.7 NW 4 6 1014.0 - - - - - - - - -
22/09:30pm 17.4 W 7 11 1013.9 - - - - - - - - -
22/09:00pm 18.7 NNW 10 19 1014.8 - - - - - - - - -
22/08:30pm 19.6 NW 8 15 1014.3 - - - - - - - - -
22/08:00pm 19.3 WNW 8 15 1013.9 - - - - - - - - -
22/07:30pm 19.4 NW 7 12 1013.6 - - - - - - - - -
22/07:00pm 19.4 WNW 8 14 1013.5 - - - - - - - - -
22/06:30pm 19.5 WNW 10 15 1013.3 - - - - - - - - -
22/06:00pm 19.7 WNW 11 19 1013.1 - - - - - - - - -
22/05:30pm 19.8 WNW 10 17 1013.0 - - - - - - - - -
22/05:00pm 20.1 WNW 10 18 1012.8 - - - - - - - - -
22/04:30pm 20.2 WNW 10 18 1012.4 - - - - - - - - -
22/04:00pm 20.5 WNW 9 16 1012.0 - - - - - - - - -
22/03:30pm 20.4 WNW 11 20 1012.0 - - - - - - - - -
22/03:00pm 20.6 WNW 11 19 1011.9 - - - - - - - - -
22/02:30pm 20.6 NW 13 22 1011.6 - - - - - - - - -
22/02:00pm 21.1 NW 11 20 1011.5 - - - - - - - - -
22/01:30pm 21.2 NW 9 16 1011.3 - - - - - - - - -
22/01:00pm 21.7 NW 7 13 1011.4 - - - - - - - - -
22/12:30pm 22.4 WNW 8 13 1011.3 - - - - - - - - -
22/12:00pm 26.3 NNW 8 15 1010.8 - - - - - - - - -
22/11:30am 29.5 N 10 16 1011.1 - - - - - - - - -
22/11:00am 28.3 NNE 9 16 1011.4 - - - - - - - - -
22/10:30am 27.3 NE 10 17 1012.0 - - - - - - - - -
22/10:00am 26.3 NE 10 16 1012.7 - - - - - - - - -
22/09:30am 21.3 WNW 5 8 1013.6 - - - - - - - - -
22/09:00am 23.9 NNE 8 15 1013.8 - - - - - - - - -
22/08:30am 23.2 NNE 9 18 1014.0 - - - - - - - - -
22/08:00am 21.8 ENE 12 21 1013.2 - - - - - - - - -
22/07:30am 20.6 ENE 15 24 1012.3 - - - - - - - - -
22/07:00am 20.1 ENE 15 24 1012.5 - - - - - - - - -
22/06:30am 19.6 ENE 11 16 1012.6 - - - - - - - - -
22/06:00am 19.3 ENE 11 16 1012.4 - - - - - - - - -
22/05:30am 18.9 ENE 11 18 1012.4 - - - - - - - - -
22/05:00am 18.8 ENE 11 17 1012.4 - - - - - - - - -
22/04:30am 18.9 ENE 12 19 1012.5 - - - - - - - - -
22/04:00am 19.1 ENE 12 19 1012.8 - - - - - - - - -
22/03:30am 19.1 E 10 18 1013.1 - - - - - - - - -
22/03:00am 19.1 E 7 12 1013.4 - - - - - - - - -
22/02:30am 19.3 E 6 10 1013.7 - - - - - - - - -
22/02:00am 19.3 E 5 10 1014.2 - - - - - - - - -
22/01:30am 19.4 E 6 10 1014.5 - - - - - - - - -
22/01:00am 19.7 E 6 11 1014.9 - - - - - - - - -
22/12:30am 20.1 E 6 13 1015.4 - - - - - - - - -
22/12:00am 18.4 E 4 7 1015.7 - - - - - - - - -
 
Date/Time
WST
Temp

°C
Wind Pressure Rain
since 9am
mm
Weather Cloud Vis
km
Sea
Height
m
Swell
Dir
 
Speed
knots
Gust
knots
hPa Trend Height
m
Period
s
Dir
21/11:30pm 18.1 E 3 7 1016.2 - - - - - - - - -
21/11:00pm 17.8 ESE 1 3 1016.4 - - - - - - - - -
21/10:30pm 18.0 E 2 5 1016.6 - - - - - - - - -
21/10:00pm 18.5 SE 1 4 1017.3 - - - - - - - - -
21/09:30pm 18.8 SE 1 5 1017.9 - - - - - - - - -

Other Formats:

Comma delimited format used in spreadsheet applications
http://www.bom.gov.au/fwo/IDW60701/IDW60701.95605.axf

JavaScript Object Notation format (JSON) in row-major order
http://www.bom.gov.au/fwo/IDW60701/IDW60701.95605.json